Time;durP1;ratioP1;P1;durP2;ratioP2;P2;SDS_P1;SDS_P2;PMS_P1;PMS_P2;Temp;Humidity;BMP_temperature;BMP_pressure;BME280_temperature;BME280_humidity;BME280_pressure;Samples;Min_cycle;Max_cycle;Signal;HPM_P1;HPM_P2
2022/05/29 00:02:01;;;;;;;3.47;0.67;;;;;;;12.01;38.87;100611.72;10290704;28;20247;-81
2022/05/29 00:07:04;;;;;;;4.13;1.10;;;;;;;12.39;38.16;100604.06;10293809;28;20230;-82
2022/05/29 00:12:07;;;;;;;3.57;0.83;;;;;;;12.08;38.93;100606.38;10294413;28;20222;-85
2022/05/29 00:17:09;;;;;;;6.03;1.37;;;;;;;11.82;39.36;100598.84;10294711;28;20203;-82
2022/05/29 00:22:17;;;;;;;8.73;1.40;;;;;;;11.77;39.77;100599.00;10294907;28;20199;-81
2022/05/29 00:27:19;;;;;;;5.07;0.80;;;;;;;11.59;40.18;100594.59;10275184;28;20266;-81
2022/05/29 00:32:22;;;;;;;3.10;0.87;;;;;;;11.89;39.53;100593.50;10279677;28;20218;-87
2022/05/29 00:37:24;;;;;;;4.90;1.43;;;;;;;12.31;38.90;100596.44;10307093;28;20198;-82
2022/05/29 00:42:26;;;;;;;2.97;0.73;;;;;;;12.19;39.22;100591.53;10298996;28;20261;-82
2022/05/29 00:47:28;;;;;;;3.47;1.00;;;;;;;11.81;39.76;100585.88;10307402;28;20242;-82
2022/05/29 00:52:30;;;;;;;3.70;0.77;;;;;;;11.48;40.27;100587.59;10285942;28;20223;-82
2022/05/29 00:57:35;;;;;;;2.20;0.80;;;;;;;11.64;40.05;100591.59;10302330;28;20190;-81
2022/05/29 01:02:37;;;;;;;4.37;1.00;;;;;;;11.37;40.84;100575.00;10270145;28;20580;-81
2022/05/29 01:07:43;;;;;;;2.77;0.90;;;;;;;11.60;40.51;100570.84;10300912;28;20203;-82
2022/05/29 01:12:53;;;;;;;7.07;1.10;;;;;;;11.85;39.79;100572.75;10268323;28;20229;-81
2022/05/29 01:18:02;;;;;;;5.53;1.73;;;;;;;11.39;40.75;100569.88;10283801;28;20264;-82
2022/05/29 01:23:22;;;;;;;3.70;1.00;;;;;;;11.17;41.36;100568.91;10286417;28;20254;-88
2022/05/29 01:28:44;;;;;;;5.13;1.27;;;;;;;11.48;40.65;100563.03;10303254;28;20527;-84
2022/05/29 01:34:05;;;;;;;6.33;1.10;;;;;;;11.43;40.98;100557.59;10308160;28;20234;-81
2022/05/29 01:39:13;;;;;;;3.70;1.00;;;;;;;11.20;41.57;100554.16;10300966;28;20657;-90
2022/05/29 01:44:22;;;;;;;4.80;1.30;;;;;;;11.44;41.43;100547.94;10312254;28;20218;-81
2022/05/29 01:49:30;;;;;;;4.13;1.23;;;;;;;11.47;41.14;100540.81;10293824;28;20662;-82
2022/05/29 01:54:45;;;;;;;4.10;1.07;;;;;;;11.41;41.53;100533.69;10300407;28;20222;-91
2022/05/29 01:59:53;;;;;;;4.17;1.27;;;;;;;11.63;40.61;100528.63;10290188;28;20198;-81
2022/05/29 02:04:56;;;;;;;3.70;1.53;;;;;;;11.38;41.45;100531.53;10284306;28;20258;-91
2022/05/29 02:10:04;;;;;;;7.70;1.13;;;;;;;10.91;42.42;100540.75;10298507;28;20261;-89
2022/05/29 02:15:11;;;;;;;2.23;1.00;;;;;;;10.64;43.35;100540.25;10285364;28;20194;-92
2022/05/29 02:20:22;;;;;;;5.07;1.23;;;;;;;11.06;42.50;100522.47;10284475;28;20576;-82
2022/05/29 02:25:25;;;;;;;5.03;1.57;;;;;;;11.27;42.11;100519.78;10303581;28;20198;-92
2022/05/29 02:30:39;;;;;;;3.13;1.33;;;;;;;11.00;42.52;100520.97;10283780;28;20226;-82
2022/05/29 02:36:23;;;;;;;1.60;1.03;;;;;;;10.78;42.78;100524.00;10289613;28;20637;-83
2022/05/29 02:41:37;;;;;;;5.33;1.40;;;;;;;10.86;43.20;100515.53;10243628;28;20252;-82
2022/05/29 02:46:53;;;;;;;4.90;1.57;;;;;;;11.13;42.66;100505.03;10297827;28;20239;-82
2022/05/29 02:52:08;;;;;;;5.77;2.03;;;;;;;11.30;41.77;100501.34;10304097;28;20273;-83
2022/05/29 02:57:11;;;;;;;3.97;1.40;;;;;;;10.93;43.21;100506.56;10296473;28;20578;-91
2022/05/29 03:02:50;;;;;;;5.63;1.60;;;;;;;10.79;43.46;100497.47;10284850;28;20537;-82
2022/05/29 03:08:30;;;;;;;3.93;1.57;;;;;;;10.85;43.62;100498.94;10293810;28;20218;-88
2022/05/29 03:14:01;;;;;;;4.13;2.10;;;;;;;11.02;43.49;100496.09;10213060;29;20223;-80
2022/05/29 03:19:17;;;;;;;9.17;1.93;;;;;;;10.85;43.69;100496.13;10258977;28;20214;-82
2022/05/29 03:24:31;;;;;;;3.27;1.73;;;;;;;11.07;43.48;100492.28;10283037;28;20182;-82
2022/05/29 03:29:47;;;;;;;4.93;1.70;;;;;;;11.15;43.29;100497.06;10303019;28;20233;-81
2022/05/29 03:34:49;;;;;;;6.87;1.93;;;;;;;11.27;43.22;100492.38;10266241;28;20190;-92
2022/05/29 03:39:51;;;;;;;4.27;2.47;;;;;;;10.89;44.37;100497.13;10309963;28;20253;-81
2022/05/29 03:44:54;;;;;;;3.40;1.70;;;;;;;11.46;43.11;100494.00;10272194;28;20199;-90
2022/05/29 03:49:56;;;;;;;4.10;2.10;;;;;;;11.06;44.06;100484.97;10291162;28;20257;-90
2022/05/29 03:54:58;;;;;;;6.90;2.03;;;;;;;11.05;43.91;100489.78;10279604;28;20237;-81
2022/05/29 04:00:01;;;;;;;6.17;2.23;;;;;;;11.31;43.76;100478.44;10296250;28;20202;-81
2022/05/29 04:05:15;;;;;;;5.67;2.10;;;;;;;11.36;43.55;100471.75;10297001;28;20207;-82
2022/05/29 04:15:45;;;;;;;7.03;2.30;;;;;;;11.59;43.04;100467.56;10320511;28;20191;-82
2022/05/29 04:20:50;;;;;;;6.53;2.50;;;;;;;11.63;43.50;100462.88;10300816;28;20866;-80
2022/05/29 04:25:52;;;;;;;3.93;2.00;;;;;;;11.02;45.11;100456.63;10303907;28;20225;-84
2022/05/29 04:30:55;;;;;;;4.73;2.00;;;;;;;11.22;44.96;100458.69;10268229;28;20218;-80
2022/05/29 04:35:57;;;;;;;4.33;1.83;;;;;;;11.38;44.18;100452.50;10286080;28;20313;-81
2022/05/29 04:41:05;;;;;;;5.57;2.43;;;;;;;11.89;43.56;100451.44;10298328;28;20194;-81
2022/05/29 04:46:07;;;;;;;10.03;3.07;;;;;;;12.21;43.05;100455.56;10282728;28;20202;-80
2022/05/29 04:51:09;;;;;;;5.97;2.30;;;;;;;12.30;42.54;100445.00;10298674;28;20219;-89
2022/05/29 04:56:11;;;;;;;11.20;3.13;;;;;;;12.06;43.61;100444.84;10301371;28;20277;-80
2022/05/29 05:01:13;;;;;;;8.43;2.30;;;;;;;12.53;42.81;100446.31;10301983;28;20191;-89
2022/05/29 05:06:16;;;;;;;3.17;2.13;;;;;;;12.41;43.14;100446.25;10299455;28;20198;-81
2022/05/29 05:11:18;;;;;;;5.47;2.50;;;;;;;11.96;45.37;100446.91;10301246;28;20308;-81
2022/05/29 05:16:21;;;;;;;7.30;2.57;;;;;;;12.01;46.37;100451.53;10297793;28;20594;-80
2022/05/29 05:21:23;;;;;;;4.00;2.40;;;;;;;12.19;47.08;100443.75;10298163;28;20249;-86
2022/05/29 05:26:25;;;;;;;4.00;3.10;;;;;;;12.43;47.28;100434.63;10283486;28;20194;-81
2022/05/29 05:31:27;;;;;;;7.23;3.20;;;;;;;12.29;48.17;100432.03;10298711;28;20218;-81
2022/05/29 05:36:30;;;;;;;5.53;2.70;;;;;;;12.06;48.29;100436.38;10282101;28;20206;-80
2022/05/29 05:41:32;;;;;;;6.57;2.87;;;;;;;11.90;49.65;100434.16;10289027;28;20265;-80
2022/05/29 05:46:34;;;;;;;8.30;3.53;;;;;;;12.22;48.70;100431.78;10295565;28;20194;-80
2022/05/29 05:51:37;;;;;;;7.97;3.50;;;;;;;12.01;49.12;100436.56;10273019;28;20214;-80
2022/05/29 05:56:44;;;;;;;7.77;4.00;;;;;;;12.00;48.87;100438.56;10282148;28;20543;-81
2022/05/29 06:01:46;;;;;;;6.87;3.83;;;;;;;12.73;48.01;100429.69;10277751;28;20199;-81
2022/05/29 06:06:48;;;;;;;7.77;4.00;;;;;;;12.57;47.68;100437.97;10296143;28;20198;-80
2022/05/29 06:11:51;;;;;;;5.10;4.20;;;;;;;12.42;48.47;100436.63;10275274;28;20214;-80
2022/05/29 06:16:53;;;;;;;6.97;4.67;;;;;;;11.88;49.67;100432.84;10273909;28;20198;-82
2022/05/29 06:21:55;;;;;;;8.30;4.90;;;;;;;12.61;48.62;100439.78;10297533;28;20591;-80
2022/05/29 06:26:58;;;;;;;6.90;5.13;;;;;;;12.60;48.94;100435.28;10280228;28;20234;-91
2022/05/29 06:32:03;;;;;;;12.27;5.00;;;;;;;12.63;47.72;100428.94;10265448;28;20281;-80
2022/05/29 06:37:06;;;;;;;11.70;5.80;;;;;;;12.61;49.43;100431.28;10269675;28;20273;-81
2022/05/29 06:42:08;;;;;;;9.53;5.73;;;;;;;12.47;48.66;100432.75;10295432;28;20199;-80
2022/05/29 06:47:13;;;;;;;7.17;5.03;;;;;;;12.90;46.71;100430.31;10274551;28;20550;-81
2022/05/29 06:52:15;;;;;;;9.03;5.37;;;;;;;;;;10280680;28;20218;-80
2022/05/29 06:57:36;;;;;;;12.10;5.67;;;;;;;12.98;47.60;100423.75;10294098;28;20235;-81
2022/05/29 07:08:00;;;;;;;10.53;6.70;;;;;;;13.70;45.63;100427.03;10295859;28;20245;-79
2022/05/29 07:13:03;;;;;;;9.50;6.13;;;;;;;13.28;47.20;100430.09;10295927;28;20706;-80
2022/05/29 07:18:05;;;;;;;11.93;7.00;;;;;;;13.82;46.63;100426.19;10279390;28;20198;-90
2022/05/29 07:23:07;;;;;;;8.33;7.07;;;;;;;13.47;47.24;100426.69;10275660;28;20210;-80
2022/05/29 07:28:09;;;;;;;9.73;7.00;;;;;;;14.20;46.34;100426.63;10269448;28;20207;-80
2022/05/29 07:33:12;;;;;;;8.47;6.53;;;;;;;13.83;46.65;100423.00;10292307;28;20222;-80
2022/05/29 07:38:14;;;;;;;8.50;6.87;;;;;;;14.18;46.37;100420.50;10274924;28;20194;-80
2022/05/29 07:43:20;;;;;;;9.97;7.83;;;;;;;14.02;44.34;100414.75;10293711;28;20244;-80
2022/05/29 07:48:25;;;;;;;11.40;7.33;;;;;;;13.75;46.39;100421.13;10280596;28;20206;-80
2022/05/29 07:53:27;;;;;;;11.77;7.50;;;;;;;13.67;47.46;100419.25;10280897;28;20742;-79
2022/05/29 07:58:29;;;;;;;11.80;6.77;;;;;;;13.97;47.53;100414.97;10267444;28;20281;-80
2022/05/29 08:03:32;;;;;;;10.13;5.30;;;;;;;11.76;49.58;100419.44;10254869;28;20308;-80
2022/05/29 08:08:35;;;;;;;12.87;5.83;;;;;;;13.69;45.60;100406.38;10255286;28;20624;-81
2022/05/29 08:13:37;;;;;;;9.33;5.03;;;;;;;12.79;47.38;100402.81;10259939;28;20246;-80
2022/05/29 08:18:39;;;;;;;6.53;2.20;;;;;;;12.37;47.47;100402.94;10267762;28;20207;-79
2022/05/29 08:30:37;;;;;;;10.83;4.30;;;;;;;13.68;45.02;100403.91;10271887;28;20258;-79
2022/05/29 08:34:25;;;;;;;6.17;1.63;;;;;;;14.61;44.32;100399.91;10274609;28;20245;-89
2022/05/29 08:39:35;;;;;;;3.90;1.20;;;;;;;13.78;44.61;100397.78;10276466;28;20895;-88
2022/05/29 08:44:49;;;;;;;3.23;1.30;;;;;;;14.16;43.43;100385.19;10279206;28;20246;-81
2022/05/29 08:49:57;;;;;;;3.83;1.60;;;;;;;14.63;41.65;100376.84;10276989;28;20225;-90
2022/05/29 08:55:22;;;;;;;2.17;1.13;;;;;;;15.17;42.27;100371.47;10279178;28;20258;-89
2022/05/29 09:00:44;;;;;;;2.22;1.50;;;;;;;13.89;42.05;100384.75;10295244;28;20198;-91
2022/05/29 09:05:51;;;;;;;4.87;1.10;;;;;;;15.19;41.72;100365.41;10293095;28;20198;-87
2022/05/29 09:10:56;;;;;;;5.50;1.17;;;;;;;14.71;41.15;100356.84;10272799;28;20226;-93
2022/05/29 09:16:13;;;;;;;4.43;1.43;;;;;;;13.83;43.05;100372.00;10244104;28;20436;-87
2022/05/29 09:21:22;;;;;;;4.43;1.60;;;;;;;15.16;41.43;100355.63;10260013;28;20206;-87
2022/05/29 09:26:34;;;;;;;3.70;1.60;;;;;;;15.31;38.60;100362.47;10267265;28;20203;-88
2022/05/29 09:31:37;;;;;;;4.80;1.03;;;;;;;15.29;40.23;100367.69;10295205;28;20195;-91
2022/05/29 09:37:07;;;;;;;2.70;1.30;;;;;;;12.57;44.80;100395.56;10271892;28;20215;-87
2022/05/29 09:42:19;;;;;;;3.93;0.50;;;;;;;12.74;48.05;100391.75;10273151;28;20737;-89
2022/05/29 09:52:52;;;;;;;1.70;0.70;;;;;;;12.89;46.13;100379.78;10255025;28;20659;-84
2022/05/29 09:58:10;;;;;;;1.47;0.77;;;;;;;12.73;46.82;100375.94;10274037;28;20230;-83
2022/05/29 10:03:42;;;;;;;5.90;1.00;;;;;;;14.35;46.26;100374.84;10259883;28;20527;-81
2022/05/29 10:08:45;;;;;;;5.13;1.03;;;;;;;14.84;44.07;100365.31;10268130;28;20234;-86
2022/05/29 10:13:49;;;;;;;2.03;1.50;;;;;;;14.86;44.68;100362.91;10273407;28;20234;-86
2022/05/29 10:19:34;;;;;;;2.53;0.70;;;;;;;15.39;46.45;100355.78;10270382;28;20207;-86
2022/05/29 10:24:40;;;;;;;3.30;0.70;;;;;;;15.28;43.12;100351.84;10266951;28;20233;-81
2022/05/29 10:29:42;;;;;;;2.53;0.80;;;;;;;14.92;46.46;100347.28;10256301;28;20567;-87
2022/05/29 10:34:44;;;;;;;3.23;0.93;;;;;;;14.84;43.54;100348.28;10272219;28;20242;-80
2022/05/29 10:39:47;;;;;;;4.03;1.30;;;;;;;15.04;42.68;100338.69;10275965;28;20297;-82
2022/05/29 10:44:51;;;;;;;3.43;0.93;;;;;;;16.46;42.14;100327.78;10273695;28;20682;-80
2022/05/29 10:50:23;;;;;;;3.03;1.13;;;;;;;16.34;39.39;100319.41;10256079;28;20230;-90
2022/05/29 10:55:40;;;;;;;1.48;0.80;;;;;;;16.09;40.56;100314.00;10261637;28;20631;-85
2022/05/29 11:00:52;;;;;;;3.67;1.10;;;;;;;15.83;41.49;100305.31;10291068;28;20229;-89
2022/05/29 11:06:27;;;;;;;3.60;0.85;;;;;;;16.03;40.84;100306.97;10273647;28;20262;-87
2022/05/29 11:11:52;;;;;;;1.50;0.50;;;;;;;16.15;40.83;100306.81;10254273;28;20298;-80
2022/05/29 11:17:47;;;;;;;3.53;0.70;;;;;;;14.06;41.25;100313.69;10262913;28;20275;-92
2022/05/29 11:23:01;;;;;;;3.40;0.73;;;;;;;13.28;44.24;100328.19;10244369;28;20292;-82
2022/05/29 11:28:07;;;;;;;2.17;0.93;;;;;;;13.96;43.92;100325.47;10260207;28;20206;-89
2022/05/29 11:33:35;;;;;;;3.67;0.70;;;;;;;13.77;46.41;100330.97;10241752;28;20226;-79
2022/05/29 11:38:55;;;;;;;3.53;1.20;;;;;;;14.14;46.78;100330.88;10238600;28;20214;-80
2022/05/29 11:44:20;;;;;;;3.30;0.90;;;;;;;14.06;48.02;100324.19;10254632;28;20226;-81
2022/05/29 11:55:02;;;;;;;2.37;0.93;;;;;;;13.53;48.90;100322.50;10234728;28;20699;-83
2022/05/29 12:00:11;;;;;;;2.87;0.90;;;;;;;14.26;46.67;100305.31;10269691;28;20230;-81
2022/05/29 12:05:47;;;;;;;4.53;0.77;;;;;;;14.80;46.40;100292.25;10260043;28;20222;-80
2022/05/29 12:10:57;;;;;;;3.43;1.20;;;;;;;15.03;46.28;100285.94;10270845;28;20225;-82
2022/05/29 12:16:04;;;;;;;1.37;0.90;;;;;;;15.59;44.64;100274.31;10260767;28;20640;-79
2022/05/29 12:21:07;;;;;;;1.20;0.47;;;;;;;14.91;44.43;100277.50;10265622;28;20226;-80
2022/05/29 12:26:24;;;;;;;0.80;0.50;;;;;;;14.52;45.28;100279.28;10268961;28;20222;-86
2022/05/29 12:31:32;;;;;;;3.80;0.70;;;;;;;16.26;41.62;100269.28;10255111;28;20233;-79
2022/05/29 12:36:59;;;;;;;1.47;0.60;;;;;;;16.55;43.80;100263.75;10273701;28;20599;-79
2022/05/29 12:42:13;;;;;;;3.17;0.88;;;;;;;16.72;40.71;100261.59;10270289;28;20703;-81
2022/05/29 12:47:53;;;;;;;1.73;0.77;;;;;;;17.01;43.38;100257.25;10267919;28;20238;-81
2022/05/29 12:53:33;;;;;;;1.60;0.60;;;;;;;15.09;41.15;100264.59;10245282;28;20902;-82
2022/05/29 12:59:04;;;;;;;3.60;0.80;;;;;;;15.92;42.08;100256.75;10244116;28;20310;-80
2022/05/29 13:04:28;;;;;;;3.22;0.63;;;;;;;16.27;39.80;100234.78;10245425;28;20230;-80
2022/05/29 13:09:46;;;;;;;3.00;0.73;;;;;;;15.81;38.99;100242.34;10257820;28;20265;-84
2022/05/29 13:14:52;;;;;;;3.10;0.90;;;;;;;15.63;39.39;100238.31;10269977;28;20635;-79
2022/05/29 13:20:20;;;;;;;3.03;1.00;;;;;;;16.00;38.18;100230.97;10255168;28;20230;-86
2022/05/29 13:25:28;;;;;;;2.37;0.50;;;;;;;15.32;37.74;100234.31;10268912;28;20255;-87
2022/05/29 13:30:36;;;;;;;3.35;1.25;;;;;;;14.94;40.16;100237.88;10267508;28;20234;-84
2022/05/29 13:35:41;;;;;;;1.97;0.70;;;;;;;16.37;39.24;100239.03;10276499;28;20304;-82
2022/05/29 13:40:45;;;;;;;3.63;1.00;;;;;;;14.25;44.82;100246.97;10247286;28;20296;-81
2022/05/29 13:45:58;;;;;;;5.07;0.83;;;;;;;13.90;42.34;100241.09;10251211;28;20265;-84
2022/05/29 13:51:16;;;;;;;4.13;0.60;;;;;;;15.32;43.50;100234.31;10244992;28;20222;-81
2022/05/29 13:56:19;;;;;;;5.13;0.70;;;;;;;16.15;44.23;100221.50;10236614;28;20603;-82
2022/05/29 14:07:09;;;;;;;5.07;1.43;;;;;;;16.64;42.13;100206.59;10245283;28;20304;-84
2022/05/29 14:12:35;;;;;;;4.53;1.00;;;;;;;16.97;43.58;100205.13;10232139;28;20255;-82
2022/05/29 14:17:41;;;;;;;3.85;1.00;;;;;;;16.45;47.95;100206.66;10214157;28;20203;-86
2022/05/29 14:23:06;;;;;;;3.03;0.90;;;;;;;16.32;39.92;100202.34;10244714;28;20231;-86
2022/05/29 14:28:24;;;;;;;2.38;0.40;;;;;;;16.48;45.61;100197.38;10239553;28;20226;-80
2022/05/29 14:33:31;;;;;;;3.27;0.50;;;;;;;17.27;43.74;100197.47;10251584;28;20623;-86
2022/05/29 14:39:00;;;;;;;3.25;0.50;;;;;;;17.03;40.07;100197.91;10242435;28;20222;-79
2022/05/29 14:44:09;;;;;;;1.58;0.43;;;;;;;16.22;38.73;100203.78;10239164;28;20684;-82
2022/05/29 14:49:20;;;;;;;2.43;0.30;;;;;;;16.21;37.25;100197.25;10229285;28;20239;-88
2022/05/29 14:55:05;;;;;;;7.60;2.60;;;;;;;16.95;39.29;100193.28;10253447;28;20741;-88
2022/05/29 15:00:39;;;;;;;0.80;0.40;;;;;;;16.59;37.38;100189.84;10268360;28;20247;-83
2022/05/29 15:05:49;;;;;;;2.10;0.47;;;;;;;16.12;36.82;100187.34;10248876;28;20253;-82
2022/05/29 15:11:06;;;;;;;2.65;0.82;;;;;;;16.30;35.68;100199.06;10242833;28;20423;-80
2022/05/29 15:16:09;;;;;;;1.60;0.40;;;;;;;16.89;34.56;100193.59;10275226;28;20257;-85
2022/05/29 15:26:35;;;;;;;2.70;0.47;;;;;;;16.31;37.13;100190.16;10263857;28;20766;-81
2022/05/29 15:31:38;;;;;;;1.33;0.40;;;;;;;16.74;34.31;100186.03;10265730;28;20655;-79
2022/05/29 15:36:50;;;;;;;2.78;0.47;;;;;;;16.52;34.53;100184.88;10278648;28;20254;-78
2022/05/29 15:42:06;;;;;;;2.43;0.40;;;;;;;17.08;35.36;100177.63;10268475;28;20744;-79
2022/05/29 15:47:18;;;;;;;2.90;0.60;;;;;;;16.16;34.99;100177.66;10273967;28;20214;-80
2022/05/29 15:52:48;;;;;;;2.63;0.60;;;;;;;16.66;35.81;100161.53;10275432;28;20233;-79
2022/05/29 15:57:51;;;;;;;3.03;0.60;;;;;;;16.41;35.25;100171.63;10271038;28;20242;-79
2022/05/29 16:02:57;;;;;;;1.53;0.40;;;;;;;16.26;35.89;100169.75;10257722;28;20223;-79
2022/05/29 16:08:19;;;;;;;2.60;0.43;;;;;;;15.87;35.83;100164.13;10284136;28;20194;-82
2022/05/29 16:13:43;;;;;;;2.00;0.97;;;;;;;16.58;34.16;100166.25;10268635;28;20250;-79
2022/05/29 16:19:10;;;;;;;0.70;0.17;;;;;;;16.16;35.10;100171.16;10276228;28;20270;-80
2022/05/29 16:24:23;;;;;;;2.17;0.30;;;;;;;16.37;34.23;100165.06;10266666;28;20234;-78
2022/05/29 16:29:28;;;;;;;1.55;0.30;;;;;;;16.26;33.70;100166.91;10260515;28;20237;-82
2022/05/29 16:34:33;;;;;;;3.03;0.40;;;;;;;16.36;34.18;100169.94;10240814;28;20270;-80
2022/05/29 16:50:28;;;;;;;2.28;0.47;;;;;;;15.81;36.10;100163.59;10263491;28;20281;-85
2022/05/29 16:55:34;;;;;;;2.47;0.63;;;;;;;16.33;35.07;100164.19;10240644;28;20307;-83
2022/05/29 17:01:09;;;;;;;3.67;0.40;;;;;;;16.38;33.78;100166.72;10230621;28;20236;-79
2022/05/29 17:06:15;;;;;;;1.57;0.40;;;;;;;16.32;34.35;100162.53;10254105;28;20243;-78
2022/05/29 17:11:23;;;;;;;2.37;0.40;;;;;;;16.30;35.57;100162.91;10232209;28;20226;-81
2022/05/29 17:16:25;;;;;;;5.27;0.73;;;;;;;15.98;34.57;100172.84;10226892;28;20259;-79
2022/05/29 17:21:33;;;;;;;2.57;0.40;;;;;;;15.63;36.08;100170.91;10231115;28;20230;-79
2022/05/29 17:26:50;;;;;;;2.17;0.37;;;;;;;15.61;35.52;100169.66;10232200;28;20254;-79
2022/05/29 17:32:22;;;;;;;2.67;0.47;;;;;;;16.56;35.17;100167.81;10236010;28;20605;-79
2022/05/29 17:37:33;;;;;;;1.52;0.38;;;;;;;16.55;34.08;100172.69;10236630;28;20251;-83
2022/05/29 17:43:34;;;;;;;1.37;0.47;;;;;;;13.01;34.55;100167.22;10517520;27;20610;-78
2022/05/29 17:48:42;;;;;;;1.40;0.30;;;;;;;13.49;33.32;100165.69;10426158;27;20736;-78
2022/05/29 17:53:54;;;;;;;2.03;0.80;;;;;;;12.74;33.59;100165.47;10466831;28;20303;-79
2022/05/29 17:58:57;;;;;;;2.22;0.65;;;;;;;13.40;33.98;100172.84;10456389;28;20231;-91
2022/05/29 18:04:00;;;;;;;3.13;0.60;;;;;;;12.55;35.19;100168.31;10422824;28;20604;-79
2022/05/29 18:09:03;;;;;;;1.53;0.60;;;;;;;12.34;35.58;100183.66;10461466;28;20216;-79
2022/05/29 18:14:05;;;;;;;5.85;0.38;;;;;;;11.38;36.49;100186.16;10449082;28;20224;-79
2022/05/29 18:19:08;;;;;;;3.17;0.47;;;;;;;12.47;35.57;100179.50;10440707;28;20331;-79
2022/05/29 18:24:11;;;;;;;3.40;0.50;;;;;;;12.49;34.65;100179.13;10455655;28;20628;-83
2022/05/29 18:29:15;;;;;;;2.83;0.50;;;;;;;12.58;34.47;100173.25;10406235;27;20239;-79
2022/05/29 18:34:21;;;;;;;3.60;0.50;;;;;;;12.81;34.34;100177.78;10465662;28;20231;-79
2022/05/29 18:39:24;;;;;;;4.73;0.67;;;;;;;12.79;33.41;100177.34;10452726;28;20664;-79
2022/05/29 18:44:26;;;;;;;0.97;0.40;;;;;;;12.82;34.34;100179.44;10418437;28;20569;-78
2022/05/29 18:49:29;;;;;;;3.37;0.40;;;;;;;12.40;34.68;100185.00;10449987;28;20277;-85
2022/05/29 18:54:31;;;;;;;3.13;0.63;;;;;;;12.47;34.47;100179.50;10431395;28;20243;-78
2022/05/29 18:59:36;;;;;;;4.53;0.40;;;;;;;12.58;34.81;100181.78;10428638;28;20381;-81
2022/05/29 19:04:39;;;;;;;2.40;0.90;;;;;;;12.04;35.12;100186.22;10412110;28;20249;-78
2022/05/29 19:09:41;;;;;;;1.07;0.53;;;;;;;11.79;35.74;100179.94;10419518;28;20560;-79
2022/05/29 19:14:43;;;;;;;2.10;0.60;;;;;;;12.31;35.20;100181.56;10428647;28;20305;-78
2022/05/29 19:19:45;;;;;;;4.70;0.43;;;;;;;12.03;35.68;100189.44;10434996;28;20740;-78
2022/05/29 19:24:47;;;;;;;5.10;0.63;;;;;;;11.31;36.61;100188.81;10401875;28;20625;-80
2022/05/29 19:29:50;;;;;;;3.13;0.60;;;;;;;11.77;36.29;100196.50;10423409;28;20216;-80
2022/05/29 19:34:52;;;;;;;3.70;0.80;;;;;;;11.81;36.45;100199.44;10423563;28;20227;-81
2022/05/29 19:39:54;;;;;;;1.87;0.70;;;;;;;12.23;35.66;100190.31;10418361;28;20306;-88
2022/05/29 19:44:56;;;;;;;2.03;0.67;;;;;;;11.39;36.89;100199.16;10420039;28;20233;-81
2022/05/29 19:50:02;;;;;;;3.57;0.90;;;;;;;11.88;36.29;100207.28;10421522;28;20700;-78
2022/05/29 19:55:07;;;;;;;3.10;0.60;;;;;;;12.12;35.74;100205.06;10422306;28;20244;-81
2022/05/29 20:00:10;;;;;;;1.30;0.67;;;;;;;12.26;35.98;100200.91;10421575;28;20247;-81
2022/05/29 20:05:13;;;;;;;2.37;0.50;;;;;;;11.84;36.63;100212.09;10426711;28;20244;-89
2022/05/29 20:10:15;;;;;;;1.17;0.33;;;;;;;11.86;36.21;100207.66;10401884;28;20293;-81
2022/05/29 20:15:17;;;;;;;4.47;0.63;;;;;;;11.67;36.07;100208.41;10429485;28;20227;-81
2022/05/29 20:20:19;;;;;;;3.20;0.97;;;;;;;11.45;36.42;100211.88;10422609;28;20624;-93
2022/05/29 20:25:22;;;;;;;2.80;0.47;;;;;;;11.31;36.71;100212.31;10414640;28;20220;-81
2022/05/29 20:30:31;;;;;;;2.03;0.40;;;;;;;11.28;36.58;100215.06;10420703;28;20586;-78
2022/05/29 20:35:33;;;;;;;1.33;0.50;;;;;;;11.22;37.11;100216.50;10424650;28;20278;-80
2022/05/29 20:40:36;;;;;;;2.97;0.67;;;;;;;11.24;37.65;100217.78;10426309;28;20256;-80
2022/05/29 20:45:44;;;;;;;3.70;0.80;;;;;;;11.39;37.61;100219.00;10430117;28;20220;-81
2022/05/29 20:50:47;;;;;;;3.13;0.70;;;;;;;10.31;38.87;100224.72;10409844;28;20219;-81
2022/05/29 20:55:49;;;;;;;3.50;0.97;;;;;;;11.36;37.61;100208.38;10427389;28;20564;-92
2022/05/29 21:00:51;;;;;;;3.57;0.40;;;;;;;11.21;38.39;100217.69;10425901;28;20255;-81
2022/05/29 21:05:53;;;;;;;2.80;0.60;;;;;;;11.70;36.92;100207.66;10421554;28;20219;-81
2022/05/29 21:10:56;;;;;;;3.37;0.90;;;;;;;11.14;38.12;100211.81;10425147;28;20251;-79
2022/05/29 21:16:00;;;;;;;3.93;1.00;;;;;;;11.17;38.38;100208.28;10426699;28;20545;-81
2022/05/29 21:21:02;;;;;;;3.03;0.63;;;;;;;11.07;38.78;100207.59;10417627;28;20338;-81
2022/05/29 21:26:04;;;;;;;3.87;0.87;;;;;;;11.37;37.68;100198.69;10421627;28;20227;-79
2022/05/29 21:31:08;;;;;;;5.60;1.03;;;;;;;11.08;38.69;100200.75;10400528;28;20231;-88
2022/05/29 21:36:15;;;;;;;2.23;0.77;;;;;;;10.76;39.00;100201.84;10445696;28;20254;-88
2022/05/29 21:41:18;;;;;;;1.43;0.50;;;;;;;10.94;38.63;100202.34;10445187;28;20284;-79
2022/05/29 21:46:21;;;;;;;2.13;0.50;;;;;;;11.28;38.24;100212.22;10446549;28;20232;-80
2022/05/29 21:51:24;;;;;;;10.00;1.20;;;;;;;11.51;37.75;100209.56;10422479;28;20579;-81
2022/05/29 21:56:26;;;;;;;3.67;0.70;;;;;;;11.44;37.82;100208.22;10438324;28;20269;-79
2022/05/29 22:01:29;;;;;;;4.20;0.80;;;;;;;11.47;37.92;100215.16;10447500;28;20255;-80
2022/05/29 22:06:34;;;;;;;3.53;1.23;;;;;;;11.13;38.15;100216.69;10429855;28;20667;-80
2022/05/29 22:11:36;;;;;;;4.53;0.80;;;;;;;11.27;38.12;100221.91;10436604;28;20222;-80
2022/05/29 22:16:39;;;;;;;4.03;0.87;;;;;;;11.15;38.51;100219.16;10439237;28;20231;-79
2022/05/29 22:21:41;;;;;;;5.23;0.90;;;;;;;11.36;38.29;100220.53;10426784;28;20255;-79
2022/05/29 22:26:44;;;;;;;4.43;1.20;;;;;;;10.85;39.39;100221.50;10441946;28;20254;-79
2022/05/29 22:31:54;;;;;;;4.97;0.80;;;;;;;10.85;39.02;100210.16;10449071;28;20250;-80
2022/05/29 22:37:12;;;;;;;6.53;0.87;;;;;;;10.78;39.15;100219.31;10429416;28;20236;-79
2022/05/29 22:42:15;;;;;;;3.87;0.80;;;;;;;11.04;38.40;100211.19;10449797;28;20296;-80
2022/05/29 22:47:26;;;;;;;5.00;1.20;;;;;;;11.32;38.33;100202.63;10451376;28;20242;-80
2022/05/29 22:52:33;;;;;;;5.77;0.67;;;;;;;11.12;38.29;100200.84;10448399;28;20228;-79
2022/05/29 22:57:36;;;;;;;5.90;0.90;;;;;;;11.15;39.06;100200.13;10452757;28;20228;-80
2022/05/29 23:02:38;;;;;;;4.30;1.00;;;;;;;10.68;39.00;100197.16;10450826;28;20628;-82
2022/05/29 23:07:41;;;;;;;7.57;1.53;;;;;;;10.57;39.36;100204.50;10450611;28;20227;-80
2022/05/29 23:12:43;;;;;;;6.70;1.07;;;;;;;11.13;39.02;100193.19;10452061;28;20227;-80
2022/05/29 23:17:46;;;;;;;4.30;1.20;;;;;;;10.29;40.19;100210.13;10430393;28;20215;-79
2022/05/29 23:22:48;;;;;;;7.00;1.00;;;;;;;10.68;39.32;100200.00;10449222;28;20255;-80
2022/05/29 23:27:50;;;;;;;6.50;0.97;;;;;;;10.46;40.22;100198.50;10435106;28;20227;-79
2022/05/29 23:32:55;;;;;;;5.30;0.70;;;;;;;10.84;39.00;100198.00;10451515;28;20235;-79
2022/05/29 23:37:57;;;;;;;5.90;1.07;;;;;;;10.89;38.73;100200.59;10447912;28;20227;-80
2022/05/29 23:43:06;;;;;;;4.37;0.93;;;;;;;10.62;39.18;100196.56;10435281;28;20329;-79
2022/05/29 23:48:37;;;;;;;4.20;1.60;;;;;;;10.95;38.88;100201.97;10444150;28;20251;-80
2022/05/29 23:53:39;;;;;;;6.13;1.80;;;;;;;10.75;38.97;100195.34;10447545;28;20321;-80
2022/05/29 23:58:41;;;;;;;4.87;1.10;;;;;;;10.31;39.11;100196.44;10431316;28;20265;-79
